Time;durP1;ratioP1;P1;durP2;ratioP2;P2;SDS_P1;SDS_P2;PMS_P1;PMS_P2;Temp;Humidity;BMP_temperature;BMP_pressure;BME280_temperature;BME280_humidity;BME280_pressure;Samples;Min_cycle;Max_cycle;Signal;HPM_P1;HPM_P2
2022/11/20 00:01:14;;;;;;;3.63;3.33;;;2.20;99.90;;;;;;5051992;28;20421;-67
2022/11/20 00:03:40;;;;;;;4.00;3.00;;;2.20;99.90;;;;;;5050655;28;20482;-68
2022/11/20 00:06:09;;;;;;;2.67;2.47;;;2.20;99.90;;;;;;5052765;28;20930;-67
2022/11/20 00:08:34;;;;;;;3.10;2.87;;;2.20;99.90;;;;;;5053026;28;20401;-66
2022/11/20 00:11:09;;;;;;;4.17;3.10;;;2.20;99.90;;;;;;5053231;28;20470;-71
2022/11/20 00:13:35;;;;;;;3.13;2.90;;;2.20;99.90;;;;;;5052619;28;20682;-68
2022/11/20 00:16:05;;;;;;;3.20;3.00;;;2.10;99.90;;;;;;5051913;28;20456;-70
2022/11/20 00:18:32;;;;;;;2.90;2.70;;;2.10;99.90;;;;;;5068512;28;20428;-66
2022/11/20 00:21:02;;;;;;;3.37;3.17;;;2.10;99.90;;;;;;5052819;28;20401;-66
2022/11/20 00:23:28;;;;;;;2.70;2.50;;;2.10;99.90;;;;;;5052454;28;20436;-70
2022/11/20 00:25:54;;;;;;;3.53;3.33;;;2.10;99.90;;;;;;5054558;28;20484;-69
2022/11/20 00:28:20;;;;;;;3.87;3.47;;;2.10;99.90;;;;;;5056400;28;20167;-67
2022/11/20 00:30:45;;;;;;;3.90;3.60;;;2.20;99.90;;;;;;5055345;28;20182;-67
2022/11/20 00:33:11;;;;;;;4.27;3.77;;;2.20;99.90;;;;;;5056339;28;20525;-66
2022/11/20 00:35:37;;;;;;;3.83;3.50;;;2.20;99.90;;;;;;5054113;28;20190;-66
2022/11/20 00:38:02;;;;;;;5.00;4.60;;;2.20;99.90;;;;;;5055848;28;20167;-67
2022/11/20 00:40:28;;;;;;;3.97;3.67;;;2.20;99.90;;;;;;5056142;28;20241;-67
2022/11/20 00:42:54;;;;;;;4.40;4.17;;;2.20;99.90;;;;;;5056099;28;20174;-67
2022/11/20 00:45:19;;;;;;;3.93;3.63;;;2.20;99.90;;;;;;5055288;28;20639;-67
2022/11/20 00:47:45;;;;;;;4.30;3.90;;;2.20;99.90;;;;;;5055869;28;20558;-67
2022/11/20 00:50:11;;;;;;;4.23;4.00;;;2.20;99.90;;;;;;5056187;28;20167;-67
2022/11/20 00:52:37;;;;;;;4.00;3.70;;;2.20;99.90;;;;;;5055616;28;20177;-67
2022/11/20 00:55:03;;;;;;;4.80;4.43;;;2.10;99.90;;;;;;5055132;28;20174;-67
2022/11/20 00:57:29;;;;;;;4.20;3.90;;;2.10;99.90;;;;;;5054559;28;20198;-67
2022/11/20 00:59:54;;;;;;;4.47;4.17;;;2.10;99.90;;;;;;5056029;28;20389;-67
2022/11/20 01:02:20;;;;;;;5.10;4.60;;;2.20;99.90;;;;;;5055836;28;20402;-67
2022/11/20 01:04:46;;;;;;;7.50;5.20;;;2.20;99.90;;;;;;5054777;28;20563;-67
2022/11/20 01:07:11;;;;;;;4.43;4.13;;;2.20;99.90;;;;;;5054364;28;20201;-67
2022/11/20 01:09:37;;;;;;;4.67;4.27;;;2.10;99.90;;;;;;5054484;28;20167;-67
2022/11/20 01:12:03;;;;;;;5.50;4.37;;;2.10;99.90;;;;;;5055406;28;20651;-66
2022/11/20 01:14:29;;;;;;;7.97;4.67;;;2.10;99.90;;;;;;5054546;28;20171;-67
2022/11/20 01:16:55;;;;;;;5.70;5.20;;;2.20;99.90;;;;;;5055583;28;20433;-67
2022/11/20 01:19:22;;;;;;;6.13;5.03;;;2.20;99.90;;;;;;5055600;28;20250;-67
2022/11/20 01:21:53;;;;;;;6.03;4.23;;;2.10;99.90;;;;;;5055439;28;20224;-67
2022/11/20 01:24:21;;;;;;;4.50;4.30;;;2.20;99.90;;;;;;5054449;28;20921;-67
2022/11/20 01:26:49;;;;;;;4.70;4.30;;;2.20;99.90;;;;;;5055141;28;20475;-68
2022/11/20 01:29:23;;;;;;;4.63;4.33;;;2.20;99.90;;;;;;5054862;28;20412;-68
2022/11/20 01:31:50;;;;;;;4.63;4.20;;;2.30;99.90;;;;;;5055312;28;20825;-67
2022/11/20 01:34:19;;;;;;;5.70;5.17;;;2.30;99.90;;;;;;5053136;28;20402;-67
2022/11/20 01:36:45;;;;;;;4.20;3.90;;;2.20;99.90;;;;;;5054296;28;20429;-68
2022/11/20 01:39:17;;;;;;;5.00;4.50;;;2.20;99.90;;;;;;5055241;28;20436;-67
2022/11/20 01:44:58;;;;;;;5.37;4.87;;;2.10;99.90;;;;;;5053897;28;20813;-67
2022/11/20 01:47:44;;;;;;;7.80;3.40;;;2.10;99.90;;;;;;5053308;28;20888;-67
2022/11/20 01:50:22;;;;;;;3.93;3.63;;;2.00;99.90;;;;;;5054865;28;20405;-68
2022/11/20 01:53:00;;;;;;;4.80;4.47;;;2.10;99.90;;;;;;5054839;28;20417;-67
2022/11/20 01:55:36;;;;;;;4.33;4.03;;;2.10;99.90;;;;;;5052861;28;20397;-67
2022/11/20 01:58:03;;;;;;;4.80;4.50;;;2.10;99.90;;;;;;5054796;28;20401;-68
2022/11/20 02:00:29;;;;;;;4.70;4.40;;;2.10;99.90;;;;;;5054862;28;20401;-68
2022/11/20 02:02:58;;;;;;;4.63;4.20;;;2.10;99.90;;;;;;5054730;28;20405;-67
2022/11/20 02:05:49;;;;;;;4.60;4.20;;;2.20;99.90;;;;;;5053419;28;20174;-67
2022/11/20 02:08:16;;;;;;;4.70;4.30;;;2.20;99.90;;;;;;5054404;28;20489;-67
2022/11/20 02:10:42;;;;;;;4.30;4.00;;;2.10;99.90;;;;;;5054509;28;20386;-68
2022/11/20 02:15:56;;;;;;;4.57;4.23;;;2.20;99.90;;;;;;5053632;28;20413;-67
2022/11/20 02:18:23;;;;;;;4.30;3.73;;;2.20;99.90;;;;;;5054383;28;20390;-68
2022/11/20 02:20:57;;;;;;;4.50;3.90;;;2.20;99.90;;;;;;5054266;28;20416;-71
2022/11/20 02:23:30;;;;;;;5.70;4.73;;;2.20;99.90;;;;;;5053593;28;20909;-69
2022/11/20 02:25:58;;;;;;;4.90;4.50;;;2.20;99.90;;;;;;5053417;28;20449;-67
2022/11/20 02:28:24;;;;;;;6.43;4.80;;;2.20;99.90;;;;;;5052851;28;20417;-67
2022/11/20 02:30:50;;;;;;;4.40;3.90;;;2.10;99.90;;;;;;5054059;28;20894;-67
2022/11/20 02:33:15;;;;;;;5.07;4.57;;;2.10;99.90;;;;;;5053981;28;20416;-69
2022/11/20 02:35:44;;;;;;;5.03;4.40;;;2.10;99.90;;;;;;5053060;28;20190;-67
2022/11/20 02:38:10;;;;;;;4.30;4.00;;;2.10;99.90;;;;;;5054089;28;20171;-67
2022/11/20 02:40:36;;;;;;;5.33;4.83;;;2.10;99.90;;;;;;5053960;28;20401;-68
2022/11/20 02:43:01;;;;;;;5.50;4.70;;;2.10;99.90;;;;;;5053325;28;20917;-67
2022/11/20 02:45:27;;;;;;;4.80;4.37;;;2.20;99.90;;;;;;5052854;28;20177;-67
2022/11/20 02:47:53;;;;;;;4.70;4.30;;;2.20;99.90;;;;;;5053459;28;20237;-69
2022/11/20 02:50:19;;;;;;;4.93;4.53;;;2.20;99.90;;;;;;5053466;28;20601;-67
2022/11/20 02:52:45;;;;;;;5.20;4.80;;;2.20;99.90;;;;;;5052753;28;20405;-69
2022/11/20 02:55:11;;;;;;;3.93;3.63;;;2.20;99.90;;;;;;5051367;28;20483;-68
2022/11/20 02:57:37;;;;;;;4.37;4.10;;;2.20;99.90;;;;;;5053541;28;20187;-68
2022/11/20 03:00:03;;;;;;;4.80;4.27;;;2.10;99.90;;;;;;5053648;28;20398;-67
2022/11/20 03:02:32;;;;;;;5.70;5.20;;;2.10;99.90;;;;;;5053334;28;20416;-67
2022/11/20 03:04:58;;;;;;;4.60;4.30;;;2.10;99.90;;;;;;5052730;28;20433;-67
2022/11/20 03:07:24;;;;;;;5.37;4.97;;;2.10;99.90;;;;;;5053337;28;20461;-67
2022/11/20 03:09:50;;;;;;;4.30;4.00;;;2.10;99.90;;;;;;5053648;28;20397;-67
2022/11/20 03:12:16;;;;;;;3.70;3.40;;;2.10;99.90;;;;;;5053526;28;20193;-67
2022/11/20 03:14:41;;;;;;;4.33;4.03;;;2.10;99.90;;;;;;5052622;28;20245;-66
2022/11/20 03:17:07;;;;;;;4.47;4.07;;;2.10;99.90;;;;;;5053384;28;20202;-67
2022/11/20 03:19:34;;;;;;;4.80;4.50;;;2.10;99.90;;;;;;5051856;28;20171;-66
2022/11/20 03:22:00;;;;;;;4.70;4.30;;;2.10;99.90;;;;;;5053486;28;20172;-67
2022/11/20 03:24:26;;;;;;;4.60;4.13;;;2.10;99.90;;;;;;5052448;28;20484;-67
2022/11/20 03:26:51;;;;;;;3.73;3.43;;;2.10;99.90;;;;;;5053186;28;20488;-66
2022/11/20 03:29:17;;;;;;;3.53;3.33;;;2.10;99.90;;;;;;5053180;28;20969;-67
2022/11/20 03:31:43;;;;;;;4.30;3.90;;;2.10;99.90;;;;;;5053190;28;20578;-67
2022/11/20 03:34:11;;;;;;;3.87;3.57;;;2.10;99.90;;;;;;5052491;28;20167;-67
2022/11/20 03:36:41;;;;;;;3.27;2.97;;;2.10;99.90;;;;;;5052972;28;20424;-67
2022/11/20 03:39:07;;;;;;;3.63;3.33;;;2.00;99.90;;;;;;5052969;28;20429;-67
2022/11/20 03:41:37;;;;;;;3.70;3.40;;;2.00;99.90;;;;;;5053029;28;20378;-67
2022/11/20 03:44:06;;;;;;;4.07;3.33;;;2.00;99.90;;;;;;5052280;28;20413;-67
2022/11/20 03:46:32;;;;;;;2.83;2.60;;;2.10;99.90;;;;;;5053081;28;20456;-67
2022/11/20 03:48:58;;;;;;;2.50;2.40;;;2.10;99.90;;;;;;5053081;28;20401;-68
2022/11/20 03:51:26;;;;;;;2.43;2.33;;;2.10;99.90;;;;;;5053198;28;20401;-67
2022/11/20 03:53:54;;;;;;;3.07;2.87;;;2.20;99.90;;;;;;5052057;28;20520;-67
2022/11/20 03:56:23;;;;;;;2.30;2.10;;;2.20;99.90;;;;;;5052502;28;20440;-68
2022/11/20 03:58:49;;;;;;;3.13;2.90;;;2.20;99.90;;;;;;5053130;28;20898;-69
2022/11/20 04:01:20;;;;;;;2.50;2.30;;;2.20;99.90;;;;;;5056459;28;20398;-68
2022/11/20 04:03:46;;;;;;;2.90;2.20;;;2.20;99.90;;;;;;5055997;28;20251;-67
2022/11/20 04:06:17;;;;;;;3.37;2.63;;;2.20;99.90;;;;;;5055725;28;20595;-67
2022/11/20 04:08:43;;;;;;;2.90;2.70;;;2.20;99.90;;;;;;5055849;28;20817;-67
2022/11/20 04:11:22;;;;;;;2.23;2.13;;;2.20;99.90;;;;;;5056798;28;20492;-68
2022/11/20 04:13:56;;;;;;;3.20;3.00;;;2.20;99.90;;;;;;5055729;28;20524;-67
2022/11/20 04:16:23;;;;;;;2.77;2.53;;;2.20;99.90;;;;;;5056315;28;20787;-68
2022/11/20 04:18:56;;;;;;;2.70;2.53;;;2.20;99.90;;;;;;5056656;28;20498;-68
2022/11/20 04:21:23;;;;;;;3.27;2.60;;;2.20;99.90;;;;;;5056687;28;20417;-67
2022/11/20 04:23:52;;;;;;;3.70;3.40;;;2.10;99.90;;;;;;5055602;28;20458;-68
2022/11/20 04:26:19;;;;;;;4.50;4.20;;;2.10;99.90;;;;;;5056315;28;20452;-67
2022/11/20 04:28:45;;;;;;;4.27;3.87;;;2.20;99.90;;;;;;5056637;28;20389;-67
2022/11/20 04:31:17;;;;;;;4.77;4.43;;;2.20;99.90;;;;;;5055104;28;20413;-67
2022/11/20 04:33:43;;;;;;;6.40;4.40;;;2.20;99.90;;;;;;5055191;28;20942;-67
2022/11/20 04:36:20;;;;;;;4.27;3.87;;;2.20;99.90;;;;;;5056022;28;20829;-67
2022/11/20 04:38:46;;;;;;;4.37;4.07;;;2.20;99.90;;;;;;5054980;28;20416;-68
2022/11/20 04:41:17;;;;;;;4.67;3.77;;;2.20;99.90;;;;;;5056229;28;20405;-68
2022/11/20 04:43:48;;;;;;;4.13;3.90;;;2.20;99.90;;;;;;5055199;28;20913;-67
2022/11/20 04:46:14;;;;;;;6.60;4.63;;;2.20;99.90;;;;;;5055905;28;21012;-67
2022/11/20 04:48:39;;;;;;;5.23;4.60;;;2.20;99.90;;;;;;5056249;28;20480;-67
2022/11/20 04:51:05;;;;;;;4.43;4.03;;;2.20;99.90;;;;;;5054567;28;20405;-67
2022/11/20 04:53:32;;;;;;;4.27;3.83;;;2.20;99.90;;;;;;5055816;28;20193;-67
2022/11/20 04:56:02;;;;;;;4.67;4.27;;;2.20;99.90;;;;;;5054366;28;20441;-66
2022/11/20 04:58:28;;;;;;;4.60;4.17;;;2.20;99.90;;;;;;5056016;28;20401;-67
2022/11/20 05:01:04;;;;;;;4.27;3.90;;;2.20;99.90;;;;;;5055893;28;20568;-67
2022/11/20 05:03:30;;;;;;;5.83;4.00;;;2.20;99.90;;;;;;5055541;28;20466;-68
2022/11/20 05:05:59;;;;;;;5.00;4.60;;;2.10;99.90;;;;;;5054621;28;20445;-67
2022/11/20 05:08:25;;;;;;;6.53;3.87;;;2.00;99.90;;;;;;5055697;28;20485;-67
2022/11/20 05:10:51;;;;;;;3.80;3.60;;;2.00;99.90;;;;;;5055073;28;20833;-67
2022/11/20 05:13:16;;;;;;;5.10;4.57;;;2.00;99.90;;;;;;5055312;28;20174;-67
2022/11/20 05:15:42;;;;;;;3.73;3.43;;;2.00;99.90;;;;;;5053623;28;20277;-67
2022/11/20 05:18:08;;;;;;;5.67;3.20;;;2.10;99.90;;;;;;5055566;28;20171;-68
2022/11/20 05:20:33;;;;;;;3.00;2.80;;;2.10;99.90;;;;;;5055545;28;20175;-67
2022/11/20 05:22:59;;;;;;;3.20;3.00;;;2.10;99.90;;;;;;5054292;28;20225;-67
2022/11/20 05:25:25;;;;;;;3.70;3.40;;;2.10;99.90;;;;;;5054277;28;20651;-67
2022/11/20 05:27:50;;;;;;;3.63;3.43;;;2.20;99.90;;;;;;5054990;28;20218;-67
2022/11/20 05:30:16;;;;;;;3.67;3.47;;;2.20;99.90;;;;;;5055265;28;20751;-67
2022/11/20 05:32:42;;;;;;;3.93;3.67;;;2.10;99.90;;;;;;5055222;28;20202;-67
2022/11/20 05:35:08;;;;;;;4.13;3.83;;;2.10;99.90;;;;;;5054362;28;20174;-67
2022/11/20 05:37:33;;;;;;;3.73;3.53;;;2.10;99.90;;;;;;5053805;28;20195;-67
2022/11/20 05:39:59;;;;;;;3.50;3.30;;;2.10;99.90;;;;;;5055064;28;20496;-68
2022/11/20 05:42:31;;;;;;;3.57;3.27;;;2.10;99.90;;;;;;5054944;28;20301;-67
2022/11/20 05:45:01;;;;;;;3.60;3.30;;;2.10;99.90;;;;;;5052518;28;20178;-69
2022/11/20 05:47:31;;;;;;;3.03;2.83;;;2.10;99.90;;;;;;5054694;28;20488;-68
2022/11/20 05:49:57;;;;;;;4.17;3.80;;;2.10;99.90;;;;;;5055001;28;20454;-68
2022/11/20 05:52:22;;;;;;;3.50;3.30;;;2.10;99.90;;;;;;5054803;28;20488;-68
2022/11/20 05:54:48;;;;;;;3.73;3.47;;;2.10;99.90;;;;;;5053934;28;20178;-68
2022/11/20 05:57:14;;;;;;;2.97;2.77;;;2.10;99.90;;;;;;5054727;28;20551;-68
2022/11/20 05:59:40;;;;;;;3.23;3.03;;;2.10;99.90;;;;;;5053336;28;20182;-67
2022/11/20 06:02:05;;;;;;;3.10;2.90;;;2.00;99.90;;;;;;5053528;28;20174;-67
2022/11/20 06:04:31;;;;;;;2.50;2.40;;;2.00;99.90;;;;;;5053644;28;20195;-66
2022/11/20 06:06:57;;;;;;;6.90;3.13;;;2.00;99.90;;;;;;5054363;28;20194;-67
2022/11/20 06:09:22;;;;;;;2.47;2.27;;;2.00;99.90;;;;;;5054462;28;20167;-68
2022/11/20 06:11:48;;;;;;;2.40;2.20;;;2.10;99.90;;;;;;5053215;28;20167;-68
2022/11/20 06:14:14;;;;;;;3.60;3.40;;;2.10;99.90;;;;;;5053705;28;20535;-67
2022/11/20 06:16:39;;;;;;;3.50;3.30;;;2.10;99.90;;;;;;5054268;28;20279;-67
2022/11/20 06:19:05;;;;;;;4.43;4.03;;;2.10;99.90;;;;;;5053924;28;20175;-67
2022/11/20 06:21:31;;;;;;;4.33;3.60;;;2.00;99.90;;;;;;5054444;28;20266;-67
2022/11/20 06:23:57;;;;;;;4.03;3.70;;;1.90;99.90;;;;;;5053377;28;20792;-67
2022/11/20 06:26:25;;;;;;;4.33;3.93;;;1.90;99.90;;;;;;5054221;28;20209;-67
2022/11/20 06:28:52;;;;;;;4.53;4.13;;;2.00;99.90;;;;;;5054134;28;20178;-66
2022/11/20 06:31:20;;;;;;;4.47;4.07;;;1.90;99.90;;;;;;5054150;28;20428;-67
2022/11/20 06:33:45;;;;;;;5.47;4.30;;;1.90;99.90;;;;;;5052209;28;20505;-67
2022/11/20 06:36:13;;;;;;;4.73;3.60;;;1.90;99.90;;;;;;5053636;28;20512;-67
2022/11/20 06:38:40;;;;;;;4.43;4.00;;;1.90;99.90;;;;;;5053915;28;20220;-67
2022/11/20 06:41:07;;;;;;;4.67;4.27;;;1.90;99.90;;;;;;5053856;28;20874;-66
2022/11/20 06:43:33;;;;;;;4.70;4.30;;;1.90;99.90;;;;;;5053748;28;20413;-67
2022/11/20 06:45:59;;;;;;;11.63;9.10;;;1.90;99.90;;;;;;5053101;28;20425;-68
2022/11/20 06:48:27;;;;;;;9.20;5.50;;;2.00;99.90;;;;;;5053793;28;20167;-68
2022/11/20 06:50:52;;;;;;;8.40;4.47;;;2.00;99.90;;;;;;5053752;28;20735;-67
2022/11/20 06:53:18;;;;;;;5.13;4.73;;;1.90;99.90;;;;;;5053647;28;20413;-67
2022/11/20 06:55:46;;;;;;;5.37;4.90;;;1.80;99.90;;;;;;5052523;28;20185;-66
2022/11/20 06:58:13;;;;;;;5.33;4.83;;;1.80;99.90;;;;;;5053865;28;20397;-67
2022/11/20 07:00:39;;;;;;;4.70;4.30;;;1.90;99.90;;;;;;5053657;28;20804;-67
2022/11/20 07:03:09;;;;;;;4.80;4.40;;;1.90;99.90;;;;;;5053532;28;20408;-66
2022/11/20 07:05:36;;;;;;;5.20;4.80;;;1.90;99.90;;;;;;5051208;28;20516;-66
2022/11/20 07:08:03;;;;;;;4.53;4.23;;;1.90;99.90;;;;;;5053574;28;20484;-66
2022/11/20 07:10:29;;;;;;;4.50;4.13;;;2.00;99.90;;;;;;5052544;28;20944;-67
2022/11/20 07:12:55;;;;;;;5.80;5.30;;;1.90;99.90;;;;;;5053548;28;20390;-66
2022/11/20 07:15:22;;;;;;;5.13;4.60;;;1.90;99.90;;;;;;5051921;28;20195;-66
2022/11/20 07:17:48;;;;;;;5.30;4.90;;;1.90;99.90;;;;;;5053464;28;20413;-67
2022/11/20 07:20:14;;;;;;;4.37;4.00;;;2.00;99.90;;;;;;5053506;28;20401;-67
2022/11/20 07:22:40;;;;;;;4.83;4.43;;;2.00;99.90;;;;;;5052413;28;20204;-67
2022/11/20 07:25:06;;;;;;;5.03;4.63;;;2.00;99.90;;;;;;5051148;28;20516;-66
2022/11/20 07:27:32;;;;;;;5.43;4.27;;;2.00;99.90;;;;;;5053138;28;20453;-68
2022/11/20 07:29:58;;;;;;;6.23;5.63;;;2.10;99.90;;;;;;5052057;28;20782;-68
2022/11/20 07:32:24;;;;;;;4.77;4.40;;;2.10;99.90;;;;;;5053003;28;20620;-66
2022/11/20 07:34:49;;;;;;;5.00;4.50;;;2.10;99.90;;;;;;5054908;28;20174;-66
2022/11/20 07:37:16;;;;;;;4.63;4.30;;;2.10;99.90;;;;;;5059601;28;20205;-67
2022/11/20 07:39:42;;;;;;;5.70;5.00;;;2.20;99.90;;;;;;5058907;28;20623;-66
2022/11/20 07:42:08;;;;;;;4.37;3.97;;;2.10;99.90;;;;;;5059732;28;20416;-66
2022/11/20 07:44:34;;;;;;;4.37;3.63;;;2.10;99.90;;;;;;5058897;28;20405;-66
2022/11/20 07:47:00;;;;;;;3.90;3.60;;;2.20;99.90;;;;;;5059507;28;20455;-66
2022/11/20 07:49:26;;;;;;;3.67;3.47;;;2.30;99.90;;;;;;5059642;28;20400;-66
2022/11/20 07:51:55;;;;;;;4.00;3.70;;;2.30;99.90;;;;;;5059833;28;20398;-66
2022/11/20 07:54:21;;;;;;;3.70;3.40;;;2.30;99.90;;;;;;5058410;28;20221;-66
2022/11/20 07:56:48;;;;;;;3.23;3.03;;;2.20;99.90;;;;;;5059688;28;20902;-66
2022/11/20 07:59:15;;;;;;;2.77;2.20;;;2.10;99.90;;;;;;5059669;28;20869;-66
2022/11/20 08:01:41;;;;;;;2.70;2.50;;;2.00;99.90;;;;;;5059494;28;20393;-67
2022/11/20 08:04:07;;;;;;;2.60;2.40;;;1.90;99.90;;;;;;5059042;28;20769;-67
2022/11/20 08:06:33;;;;;;;2.07;1.90;;;1.80;99.90;;;;;;5058138;28;20460;-68
2022/11/20 08:08:59;;;;;;;34.57;14.90;;;1.70;99.90;;;;;;5059800;28;20389;-66
2022/11/20 08:14:12;;;;;;;22.60;11.03;;;1.90;99.90;;;;;;5058704;28;20193;-66
2022/11/20 08:16:45;;;;;;;5.47;4.03;;;2.00;99.90;;;;;;5059579;28;20967;-66
2022/11/20 08:19:12;;;;;;;11.20;7.77;;;2.10;99.90;;;;;;5059621;28;20401;-67
2022/11/20 08:21:38;;;;;;;4.13;3.83;;;2.20;99.90;;;;;;5059523;28;20890;-67
2022/11/20 08:24:05;;;;;;;3.43;3.13;;;2.20;99.90;;;;;;5058533;28;20408;-68
2022/11/20 08:26:31;;;;;;;3.10;2.90;;;2.30;99.90;;;;;;5059429;28;20452;-66
2022/11/20 08:28:57;;;;;;;4.03;3.73;;;2.30;99.90;;;;;;5059494;28;20454;-68
2022/11/20 08:31:25;;;;;;;4.67;4.37;;;2.30;99.90;;;;;;5059038;28;20196;-68
2022/11/20 08:33:51;;;;;;;4.20;3.90;;;2.20;99.90;;;;;;5058323;28;20405;-69
2022/11/20 08:36:17;;;;;;;4.03;3.63;;;2.20;99.90;;;;;;5059264;28;20451;-67
2022/11/20 08:38:47;;;;;;;3.03;2.83;;;2.20;99.90;;;;;;5059475;28;20832;-66
2022/11/20 08:41:26;;;;;;;3.13;2.83;;;2.10;99.90;;;;;;5059310;28;20765;-67
2022/11/20 08:44:00;;;;;;;2.93;2.80;;;2.20;99.90;;;;;;5058332;28;20896;-66
2022/11/20 08:46:30;;;;;;;3.10;2.90;;;2.30;99.90;;;;;;5057715;28;20801;-65
2022/11/20 08:48:56;;;;;;;3.77;3.47;;;2.40;99.90;;;;;;5055079;28;20925;-66
2022/11/20 08:51:22;;;;;;;3.30;3.00;;;2.60;99.90;;;;;;5055628;28;20488;-67
2022/11/20 08:53:48;;;;;;;3.00;2.90;;;2.80;99.90;;;;;;5055085;28;20167;-67
2022/11/20 08:56:14;;;;;;;3.03;2.83;;;2.80;99.90;;;;;;5055808;28;20236;-68
2022/11/20 08:58:40;;;;;;;2.83;2.63;;;2.90;99.90;;;;;;5056242;28;20409;-68
2022/11/20 09:01:06;;;;;;;2.83;2.63;;;2.90;99.90;;;;;;5054602;28;21048;-68
2022/11/20 09:03:32;;;;;;;3.70;3.40;;;3.00;99.90;;;;;;5054349;28;20415;-66
2022/11/20 09:06:00;;;;;;;4.00;2.87;;;3.10;99.90;;;;;;5055123;28;20197;-68
2022/11/20 09:08:26;;;;;;;3.27;3.07;;;3.20;99.90;;;;;;5055821;28;20398;-65
2022/11/20 09:10:55;;;;;;;2.97;2.77;;;3.20;99.90;;;;;;5055392;28;20486;-66
2022/11/20 09:13:22;;;;;;;2.77;2.67;;;3.20;99.90;;;;;;5054307;28;20405;-66
2022/11/20 09:15:53;;;;;;;3.23;2.90;;;3.10;99.90;;;;;;5054947;28;20502;-69
2022/11/20 09:18:19;;;;;;;3.10;2.90;;;3.10;99.90;;;;;;5055664;28;20405;-69
2022/11/20 09:20:44;;;;;;;9.97;3.90;;;2.90;99.90;;;;;;5055565;28;20909;-65
2022/11/20 09:23:10;;;;;;;3.07;2.83;;;2.90;99.90;;;;;;5055638;28;20254;-69
2022/11/20 09:25:36;;;;;;;3.23;2.93;;;2.90;99.90;;;;;;5054783;28;20174;-66
2022/11/20 09:28:01;;;;;;;4.13;2.70;;;2.90;99.90;;;;;;5055367;28;20202;-66
2022/11/20 09:30:27;;;;;;;2.93;2.73;;;2.90;99.90;;;;;;5054861;28;20159;-66
2022/11/20 09:32:53;;;;;;;3.00;2.80;;;3.00;99.90;;;;;;5055407;28;20167;-69
2022/11/20 09:35:19;;;;;;;3.07;2.87;;;3.10;99.90;;;;;;5054661;28;20163;-66
2022/11/20 09:37:45;;;;;;;2.80;2.60;;;3.10;99.90;;;;;;5055161;28;20222;-69
2022/11/20 09:40:23;;;;;;;3.00;2.80;;;3.20;99.90;;;;;;5055158;28;20164;-69
2022/11/20 09:43:12;;;;;;;3.30;3.00;;;3.30;99.90;;;;;;5055223;28;20882;-66
2022/11/20 09:45:45;;;;;;;3.03;2.70;;;3.30;99.90;;;;;;5053286;28;20770;-69
2022/11/20 09:48:16;;;;;;;4.30;3.47;;;3.30;99.90;;;;;;5053573;28;20446;-66
2022/11/20 09:50:55;;;;;;;5.67;3.03;;;3.40;99.90;;;;;;5053145;28;21033;-66
2022/11/20 09:53:40;;;;;;;3.67;3.37;;;3.30;99.90;;;;;;5055008;28;20405;-66
2022/11/20 09:56:10;;;;;;;3.90;3.60;;;3.40;99.90;;;;;;5054767;28;20427;-68
2022/11/20 09:58:43;;;;;;;3.03;2.83;;;3.40;99.90;;;;;;5054129;28;20435;-66
2022/11/20 10:01:32;;;;;;;3.40;3.03;;;3.50;99.90;;;;;;5055093;28;20403;-70
2022/11/20 10:04:03;;;;;;;3.37;3.17;;;3.60;99.90;;;;;;5053924;28;20450;-65
2022/11/20 10:06:33;;;;;;;3.67;3.40;;;3.70;99.90;;;;;;5053962;28;20464;-66
2022/11/20 10:09:11;;;;;;;5.10;4.60;;;3.80;99.90;;;;;;5054952;28;20397;-70
2022/11/20 10:12:35;;;;;;;5.37;3.87;;;3.50;99.90;;;;;;5054547;28;20452;-71
2022/11/20 10:15:17;;;;;;;3.77;3.53;;;3.70;99.90;;;;;;5004104;28;20519;-67
2022/11/20 10:18:03;;;;;;;4.90;4.00;;;3.60;99.90;;;;;;5054394;28;20425;-70
2022/11/20 10:20:46;;;;;;;3.40;3.20;;;3.20;99.90;;;;;;5054477;28;20410;-65
2022/11/20 10:23:27;;;;;;;3.60;3.33;;;3.00;99.90;;;;;;5054425;28;20466;-65
2022/11/20 10:26:08;;;;;;;3.70;2.90;;;2.70;99.90;;;;;;5053354;28;20413;-65
2022/11/20 10:29:09;;;;;;;4.00;3.60;;;2.50;99.90;;;;;;5054293;28;20417;-65
2022/11/20 10:31:35;;;;;;;4.07;3.77;;;2.20;99.90;;;;;;5034686;28;20427;-65
2022/11/20 10:34:06;;;;;;;4.00;3.53;;;2.20;99.90;;;;;;5053531;28;20389;-71
2022/11/20 10:37:03;;;;;;;4.10;3.70;;;2.00;99.90;;;;;;5054063;28;20182;-65
2022/11/20 10:39:39;;;;;;;5.00;3.50;;;2.10;99.90;;;;;;5054108;28;20460;-65
2022/11/20 10:42:12;;;;;;;3.70;3.40;;;2.20;99.90;;;;;;5052180;28;20902;-65
2022/11/20 10:45:01;;;;;;;4.97;4.47;;;2.40;99.90;;;;;;5053250;28;20398;-72
2022/11/20 10:47:30;;;;;;;3.60;3.33;;;2.50;99.90;;;;;;5053763;28;20456;-72
2022/11/20 10:50:01;;;;;;;4.10;3.70;;;2.70;99.90;;;;;;5053830;28;20460;-71
2022/11/20 10:52:51;;;;;;;3.57;3.27;;;2.90;99.90;;;;;;5053715;28;20459;-67
2022/11/20 10:55:28;;;;;;;3.77;2.93;;;3.00;99.90;;;;;;5053040;28;20913;-71
2022/11/20 10:57:55;;;;;;;3.93;3.63;;;3.10;99.90;;;;;;5053230;28;20410;-66
2022/11/20 11:00:21;;;;;;;4.60;3.77;;;3.10;99.90;;;;;;5053799;28;20899;-66
2022/11/20 11:03:02;;;;;;;3.87;3.40;;;3.20;99.90;;;;;;5053622;28;20432;-68
2022/11/20 11:05:56;;;;;;;4.80;4.33;;;3.30;99.90;;;;;;5052891;28;20425;-71
2022/11/20 11:08:26;;;;;;;4.97;3.67;;;3.20;99.90;;;;;;5053478;28;20413;-72
2022/11/20 11:11:01;;;;;;;3.73;3.03;;;3.10;99.90;;;;;;5052950;28;20901;-67
2022/11/20 11:13:29;;;;;;;3.67;3.27;;;2.90;99.90;;;;;;5053366;28;20793;-66
2022/11/20 11:15:55;;;;;;;3.83;3.50;;;2.90;99.90;;;;;;5052856;28;20409;-66
2022/11/20 11:18:30;;;;;;;4.67;4.17;;;2.90;99.90;;;;;;5053075;28;20398;-66
2022/11/20 11:20:57;;;;;;;4.07;3.70;;;2.80;99.90;;;;;;5053563;28;20393;-72
2022/11/20 11:23:36;;;;;;;4.33;4.07;;;2.80;99.90;;;;;;5053283;28;20426;-67
2022/11/20 11:26:04;;;;;;;3.40;3.20;;;2.80;99.90;;;;;;5051778;28;20949;-72
2022/11/20 11:28:30;;;;;;;3.77;3.53;;;2.90;99.90;;;;;;5053445;28;20754;-66
2022/11/20 11:30:56;;;;;;;3.07;2.87;;;2.90;99.90;;;;;;5053332;28;20459;-67
2022/11/20 11:33:27;;;;;;;3.53;3.33;;;3.00;99.90;;;;;;5053133;28;20401;-72
2022/11/20 11:35:59;;;;;;;3.97;3.40;;;3.00;99.90;;;;;;5052543;28;20429;-72
2022/11/20 11:38:40;;;;;;;3.70;3.40;;;3.10;99.90;;;;;;5052906;28;20789;-67
2022/11/20 11:41:13;;;;;;;4.00;3.30;;;3.40;99.90;;;;;;5053103;28;20489;-68
2022/11/20 11:46:28;;;;;;;3.00;2.80;;;3.70;99.90;;;;;;5053088;28;20551;-73
2022/11/20 11:48:59;;;;;;;3.27;3.07;;;3.70;99.90;;;;;;5053114;28;20430;-67
2022/11/20 11:51:36;;;;;;;8.00;3.13;;;3.50;99.90;;;;;;5052990;28;20404;-73
2022/11/20 11:54:10;;;;;;;3.77;3.50;;;3.30;99.90;;;;;;5051981;28;20412;-73
2022/11/20 11:56:36;;;;;;;3.40;2.93;;;3.20;99.90;;;;;;5051661;28;20497;-67
2022/11/20 11:59:06;;;;;;;4.00;3.17;;;3.00;99.90;;;;;;5052978;28;20431;-68
2022/11/20 12:01:51;;;;;;;5.23;3.50;;;3.00;99.90;;;;;;5052819;28;20410;-72
2022/11/20 12:04:21;;;;;;;4.40;3.43;;;2.90;99.90;;;;;;5052199;28;20457;-67
2022/11/20 12:06:57;;;;;;;3.07;2.83;;;2.90;99.90;;;;;;5052723;28;20456;-73
2022/11/20 12:09:37;;;;;;;3.23;3.03;;;3.00;99.90;;;;;;5051621;28;20625;-74
2022/11/20 12:12:12;;;;;;;5.23;3.20;;;3.00;99.90;;;;;;5052757;28;20754;-67
2022/11/20 12:14:42;;;;;;;3.57;3.27;;;3.10;99.90;;;;;;5052501;28;20401;-74
2022/11/20 12:17:11;;;;;;;3.20;2.93;;;3.10;99.90;;;;;;5052869;28;20440;-73
2022/11/20 12:19:37;;;;;;;4.73;2.83;;;3.10;99.90;;;;;;5052710;28;20413;-73
2022/11/20 12:22:40;;;;;;;3.23;3.03;;;3.10;99.90;;;;;;5055866;28;21021;-67
2022/11/20 12:25:18;;;;;;;3.17;2.97;;;3.00;99.90;;;;;;5056108;28;20179;-74
2022/11/20 12:28:11;;;;;;;5.20;3.60;;;3.00;99.90;;;;;;5055910;28;20476;-72
2022/11/20 12:31:01;;;;;;;3.13;2.93;;;2.90;99.90;;;;;;5056570;28;20402;-73
2022/11/20 12:33:48;;;;;;;3.23;2.93;;;2.90;99.90;;;;;;5055978;28;20774;-73
2022/11/20 12:36:39;;;;;;;5.33;3.53;;;2.70;99.90;;;;;;5056222;28;20421;-67
2022/11/20 12:39:25;;;;;;;6.40;3.63;;;2.50;99.90;;;;;;5056321;28;20404;-73
2022/11/20 12:45:36;;;;;;;4.90;3.07;;;2.60;99.90;;;;;;5055285;28;20400;-73
2022/11/20 12:48:37;;;;;;;4.27;3.87;;;2.70;99.90;;;;;;5034138;28;20951;-67
2022/11/20 12:51:15;;;;;;;3.13;2.83;;;2.70;99.90;;;;;;5014258;28;20430;-67
2022/11/20 12:53:49;;;;;;;4.97;3.73;;;2.70;99.90;;;;;;5049890;28;20732;-73
2022/11/20 12:56:43;;;;;;;3.93;3.70;;;2.80;99.90;;;;;;5055855;28;20506;-68
2022/11/20 12:59:40;;;;;;;5.27;4.10;;;2.80;99.90;;;;;;5055978;28;20447;-74
2022/11/20 13:02:42;;;;;;;4.37;3.97;;;2.80;99.90;;;;;;5055720;28;20406;-69
2022/11/20 13:05:18;;;;;;;5.17;3.93;;;2.80;99.90;;;;;;5053091;28;20433;-74
2022/11/20 13:07:46;;;;;;;4.47;4.10;;;2.80;99.90;;;;;;5055585;28;20445;-68
2022/11/20 13:10:32;;;;;;;6.70;5.33;;;2.70;99.90;;;;;;5055625;28;20437;-68
2022/11/20 13:13:23;;;;;;;6.97;3.90;;;2.60;99.90;;;;;;5055887;28;20402;-68
2022/11/20 13:16:02;;;;;;;4.00;3.43;;;2.50;99.90;;;;;;5054902;28;20425;-68
2022/11/20 13:18:31;;;;;;;5.63;4.40;;;2.30;99.90;;;;;;5054421;28;20504;-68
2022/11/20 13:20:57;;;;;;;6.23;3.50;;;2.30;99.90;;;;;;5055701;28;20430;-73
2022/11/20 13:23:25;;;;;;;3.30;3.10;;;2.50;99.90;;;;;;5055168;28;20429;-72
2022/11/20 13:25:52;;;;;;;4.33;2.77;;;2.70;99.90;;;;;;5054583;28;20265;-68
2022/11/20 13:28:18;;;;;;;4.37;3.40;;;2.80;99.90;;;;;;5055232;28;20484;-73